createdAt,value
2023-01-22T00:01:25.141Z,-0.21
2023-01-22T00:06:29.172Z,-0.22
2023-01-22T00:11:31.946Z,-0.43
2023-01-22T00:16:34.791Z,-0.26
2023-01-22T00:21:38.858Z,-0.45
2023-01-22T00:26:41.580Z,-0.43
2023-01-22T00:31:44.755Z,-0.42
2023-01-22T00:36:48.946Z,-0.48
2023-01-22T00:41:51.954Z,-0.53
2023-01-22T00:46:54.727Z,-0.38
2023-01-22T00:51:59.271Z,-0.46
2023-01-22T00:57:02.063Z,-0.47
2023-01-22T01:02:06.511Z,-0.63
2023-01-22T01:07:10.856Z,-0.54
2023-01-22T01:12:13.603Z,-0.53
2023-01-22T01:17:16.296Z,-0.68
2023-01-22T01:22:20.365Z,-0.49
2023-01-22T01:27:23.155Z,-0.37
2023-01-22T01:32:26.921Z,-0.51
2023-01-22T01:37:31.003Z,-0.28
2023-01-22T01:42:36.998Z,-0.34
2023-01-22T01:47:39.529Z,-0.51
2023-01-22T01:52:43.593Z,-0.48
2023-01-22T01:57:46.989Z,-0.50
2023-01-22T02:02:50.004Z,-0.37
2023-01-22T02:07:54.211Z,-0.43
2023-01-22T02:12:58.713Z,-0.35
2023-01-22T02:18:01.784Z,-0.26
2023-01-22T02:23:06.257Z,-0.28
2023-01-22T02:28:09.073Z,-0.31
2023-01-22T02:33:12.246Z,-0.40
2023-01-22T02:38:19.140Z,-0.35
2023-01-22T02:43:21.956Z,-0.36
2023-01-22T02:48:24.929Z,-0.35
2023-01-22T02:53:29.346Z,-0.29
2023-01-22T02:58:32.491Z,-0.40
2023-01-22T03:03:35.239Z,-0.27
2023-01-22T03:08:39.360Z,-0.32
2023-01-22T03:13:59.609Z,-0.35
2023-01-22T03:19:21.512Z,-0.30
2023-01-22T03:24:25.616Z,-0.41
2023-01-22T03:29:28.568Z,-0.30
2023-01-22T03:34:31.496Z,-0.26
2023-01-22T03:39:35.947Z,-0.36
2023-01-22T03:44:40.924Z,-0.22
2023-01-22T03:49:43.723Z,-0.28
2023-01-22T03:54:47.980Z,-0.24
2023-01-22T03:59:50.782Z,-0.19
2023-01-22T04:04:53.565Z,-0.26
2023-01-22T04:09:57.971Z,-0.33
2023-01-22T04:15:01.701Z,-0.21
2023-01-22T04:20:05.176Z,-0.30
2023-01-22T04:25:20.825Z,-0.27
2023-01-22T04:30:24.038Z,-0.25
2023-01-22T04:35:36.180Z,-0.27
2023-01-22T04:40:40.458Z,-0.20
2023-01-22T04:45:43.355Z,-0.17
2023-01-22T04:50:46.600Z,-0.23
2023-01-22T04:55:50.838Z,-0.18
2023-01-22T05:00:53.737Z,-0.20
2023-01-22T05:05:56.625Z,-0.06
2023-01-22T05:11:02.995Z,-0.13
2023-01-22T05:16:13.441Z,-0.12
2023-01-22T05:21:16.219Z,-0.11
2023-01-22T05:26:20.924Z,-0.12
2023-01-22T05:31:31.114Z,-0.14
2023-01-22T05:36:42.771Z,-0.12
2023-01-22T05:41:52.997Z,-0.19
2023-01-22T05:46:56.002Z,-0.25
2023-01-22T05:52:37.068Z,-0.27
2023-01-22T05:57:41.468Z,-0.23
2023-01-22T06:02:45.432Z,-0.24
2023-01-22T06:07:51.453Z,-0.25
2023-01-22T06:13:01.797Z,-0.18
2023-01-22T06:18:05.756Z,-0.35
2023-01-22T06:23:09.030Z,-0.40
2023-01-22T06:28:14.130Z,-0.48
2023-01-22T06:33:17.350Z,-0.49
2023-01-22T06:38:20.232Z,-0.56
2023-01-22T06:43:24.980Z,-0.38
2023-01-22T06:48:27.890Z,-0.36
2023-01-22T06:53:30.738Z,-0.37
2023-01-22T06:58:34.850Z,-0.41
2023-01-22T07:03:37.609Z,-0.41
2023-01-22T07:08:40.998Z,-0.34
2023-01-22T07:13:46.255Z,-0.40
2023-01-22T07:18:49.081Z,-0.38
2023-01-22T07:23:51.928Z,-0.45
2023-01-22T07:28:56.006Z,-0.32
2023-01-22T07:33:58.889Z,-0.35
2023-01-22T07:39:05.515Z,-0.35
2023-01-22T07:44:09.642Z,-0.41
2023-01-22T07:49:12.727Z,-0.39
2023-01-22T07:54:17.540Z,-0.34
2023-01-22T07:59:22.773Z,-0.41
2023-01-22T08:04:25.702Z,-0.30
2023-01-22T08:09:28.451Z,-0.35
2023-01-22T08:14:32.629Z,-0.11
2023-01-22T08:19:35.351Z,-0.27
2023-01-22T08:24:38.086Z,-0.25
2023-01-22T08:29:42.185Z,-0.28
2023-01-22T08:34:44.880Z,-0.30
2023-01-22T08:39:47.601Z,-0.14
2023-01-22T08:44:51.654Z,-0.09
2023-01-22T08:49:54.394Z,-0.11
2023-01-22T08:54:57.111Z,0.05
2023-01-22T09:00:01.790Z,-0.06
2023-01-22T09:05:04.958Z,0.01
2023-01-22T09:10:12.164Z,-0.03
2023-01-22T09:15:16.328Z,-0.07
2023-01-22T09:20:19.357Z,-0.09
2023-01-22T09:25:22.283Z,0.01
2023-01-22T09:30:27.027Z,-0.05
2023-01-22T09:35:29.961Z,-0.13
2023-01-22T09:40:36.348Z,0.02
2023-01-22T09:45:42.027Z,0.03
2023-01-22T09:50:45.254Z,0.08
2023-01-22T09:55:50.821Z,-0.05
2023-01-22T10:01:00.193Z,0.10
2023-01-22T10:06:07.588Z,0.05
2023-01-22T10:11:10.422Z,0.02
2023-01-22T10:16:14.509Z,0.17
2023-01-22T10:21:21.258Z,0.32
2023-01-22T10:26:34.202Z,0.24
2023-01-22T10:31:41.020Z,0.36
2023-01-22T10:36:50.427Z,0.27
2023-01-22T10:42:02.410Z,0.31
2023-01-22T10:47:18.263Z,0.57
2023-01-22T10:52:24.329Z,0.38
2023-01-22T10:57:31.471Z,0.38
2023-01-22T11:02:36.959Z,0.56
2023-01-22T11:07:40.402Z,0.57
2023-01-22T11:12:46.480Z,0.49
2023-01-22T11:17:52.834Z,0.65
2023-01-22T11:23:02.969Z,0.63
2023-01-22T11:28:14.462Z,0.62
2023-01-22T11:33:33.552Z,0.60
2023-01-22T11:38:41.752Z,0.67
2023-01-22T11:44:06.025Z,0.72
2023-01-22T11:49:19.299Z,0.76
2023-01-22T11:54:39.385Z,0.75
2023-01-22T12:00:26.889Z,0.75
2023-01-22T12:05:39.732Z,0.73
2023-01-22T12:11:08.144Z,0.74
2023-01-22T12:16:17.267Z,0.76
2023-01-22T12:21:29.714Z,0.62
2023-01-22T12:26:34.426Z,0.61
2023-01-22T12:31:39.837Z,0.77
2023-01-22T12:36:44.937Z,0.81
2023-01-22T12:41:55.229Z,0.81
2023-01-22T12:47:06.729Z,0.80
2023-01-22T12:57:40.212Z,0.78
2023-01-22T13:02:42.944Z,0.78
2023-01-22T13:07:45.863Z,0.85
2023-01-22T13:12:51.772Z,0.82
2023-01-22T13:18:06.682Z,0.81
2023-01-22T13:23:13.492Z,0.65
2023-01-22T13:28:18.826Z,0.81
2023-01-22T13:33:21.546Z,0.85
2023-01-22T13:38:25.816Z,0.87
2023-01-22T13:43:30.308Z,0.84
2023-01-22T13:48:33.221Z,0.87
2023-01-22T13:53:40.769Z,0.85
2023-01-22T13:58:49.197Z,0.89
2023-01-22T14:03:59.513Z,0.90
2023-01-22T14:09:02.242Z,0.89
2023-01-22T14:14:16.036Z,0.85
2023-01-22T14:19:18.949Z,0.82
2023-01-22T14:24:21.695Z,0.83
2023-01-22T14:29:25.869Z,0.90
2023-01-22T14:34:28.668Z,0.87
2023-01-22T14:39:33.398Z,0.86
2023-01-22T14:44:37.855Z,0.85
2023-01-22T14:49:40.780Z,0.87
2023-01-22T14:54:43.541Z,0.90
2023-01-22T14:59:47.640Z,0.88
2023-01-22T15:04:50.782Z,0.92
2023-01-22T15:09:53.532Z,0.97
2023-01-22T15:14:57.605Z,0.91
2023-01-22T15:20:00.323Z,0.94
2023-01-22T15:25:03.035Z,0.92
2023-01-22T15:30:08.464Z,0.87
2023-01-22T15:35:11.285Z,1.09
2023-01-22T15:40:15.174Z,1.14
2023-01-22T15:45:19.331Z,1.24
2023-01-22T15:50:22.288Z,0.99
2023-01-22T15:55:27.051Z,1.05
2023-01-22T16:00:31.459Z,1.00
2023-01-22T16:05:34.156Z,0.96
2023-01-22T16:10:36.864Z,0.93
2023-01-22T16:15:40.877Z,0.91
2023-01-22T16:20:43.538Z,1.06
2023-01-22T16:25:46.174Z,1.00
2023-01-22T16:30:50.601Z,0.95
2023-01-22T16:35:59.962Z,0.94
2023-01-22T16:41:24.143Z,1.02
2023-01-22T16:46:30.910Z,1.00
2023-01-22T16:51:38.321Z,1.15
2023-01-22T16:56:42.629Z,1.05
2023-01-22T17:01:46.959Z,0.93
2023-01-22T17:06:51.251Z,0.93
2023-01-22T17:11:55.558Z,1.13
2023-01-22T17:16:59.874Z,1.05
2023-01-22T17:22:03.273Z,1.05
2023-01-22T17:27:06.002Z,1.07
2023-01-22T17:32:10.036Z,1.05
2023-01-22T17:37:13.577Z,0.99
2023-01-22T17:42:16.269Z,0.99
2023-01-22T17:47:20.354Z,0.98
2023-01-22T17:52:23.403Z,1.03
2023-01-22T17:57:26.095Z,1.00
2023-01-22T18:02:30.179Z,1.00
2023-01-22T18:07:32.897Z,0.98
2023-01-22T18:12:35.572Z,1.02
2023-01-22T18:17:39.625Z,1.03
2023-01-22T18:22:42.341Z,1.04
2023-01-22T18:27:45.101Z,1.04
2023-01-22T18:32:49.160Z,1.03
2023-01-22T18:37:57.528Z,0.96
2023-01-22T18:43:00.318Z,1.01
2023-01-22T18:48:04.783Z,1.01
2023-01-22T18:53:08.300Z,1.02
2023-01-22T18:58:21.498Z,1.05
2023-01-22T19:03:26.326Z,1.03
2023-01-22T19:08:29.672Z,1.04
2023-01-22T19:13:35.137Z,1.09
2023-01-22T19:18:40.006Z,1.05
2023-01-22T19:23:45.228Z,1.05
2023-01-22T19:28:48.066Z,1.04
2023-01-22T19:33:54.173Z,1.04
2023-01-22T19:38:57.358Z,1.07
2023-01-22T19:44:02.357Z,1.06
2023-01-22T19:49:06.492Z,1.05
2023-01-22T19:54:10.135Z,1.04
2023-01-22T19:59:15.532Z,1.07
2023-01-22T20:04:22.513Z,1.09
2023-01-22T20:09:25.575Z,1.06
2023-01-22T20:14:30.765Z,1.03
2023-01-22T20:19:38.040Z,1.06
2023-01-22T20:24:41.631Z,1.01
2023-01-22T20:29:44.322Z,1.03
2023-01-22T20:34:48.951Z,1.05
2023-01-22T20:39:51.718Z,1.07
2023-01-22T20:44:54.429Z,1.13
2023-01-22T20:49:58.480Z,1.08
2023-01-22T20:55:02.662Z,1.10
2023-01-22T21:00:06.765Z,1.13
2023-01-22T21:05:11.037Z,1.11
2023-01-22T21:10:14.579Z,1.14
2023-01-22T21:15:17.330Z,1.08
2023-01-22T21:20:21.592Z,1.18
2023-01-22T21:25:24.426Z,1.18
2023-01-22T21:30:27.240Z,1.22
2023-01-22T21:35:31.403Z,1.22
2023-01-22T21:40:34.109Z,1.13
2023-01-22T21:45:58.636Z,1.05
2023-01-22T21:51:04.445Z,1.04
2023-01-22T21:56:08.264Z,1.04
2023-01-22T22:01:11.079Z,1.02
2023-01-22T22:06:15.389Z,1.11
2023-01-22T22:11:19.340Z,1.03
2023-01-22T22:16:22.613Z,1.10
2023-01-22T22:21:26.900Z,0.96
2023-01-22T22:26:29.634Z,0.91
2023-01-22T22:31:32.555Z,0.93
2023-01-22T22:36:36.783Z,0.96
2023-01-22T22:41:39.469Z,0.99
2023-01-22T22:46:42.152Z,0.98
2023-01-22T22:51:46.761Z,0.97
2023-01-22T22:56:51.181Z,0.88
2023-01-22T23:01:53.889Z,0.92
2023-01-22T23:06:57.950Z,0.95
2023-01-22T23:12:00.974Z,0.89
2023-01-22T23:17:04.686Z,0.84
2023-01-22T23:22:08.721Z,0.78
2023-01-22T23:27:11.442Z,0.86
2023-01-22T23:32:14.122Z,0.90
2023-01-22T23:37:18.197Z,0.85
2023-01-22T23:42:20.908Z,0.94
2023-01-22T23:47:26.899Z,0.93
2023-01-22T23:52:31.125Z,0.94
2023-01-22T23:57:33.872Z,0.99
